createdAt,value
2018-04-09T00:00:06.457Z,0.00
2018-04-09T00:01:06.382Z,0.00
2018-04-09T00:02:06.307Z,0.00
2018-04-09T00:03:06.242Z,0.00
2018-04-09T00:04:06.188Z,0.00
2018-04-09T00:05:06.110Z,0.00
2018-04-09T00:06:06.050Z,0.00
2018-04-09T00:07:06.006Z,0.00
2018-04-09T00:08:05.919Z,0.00
2018-04-09T00:09:05.859Z,0.00
2018-04-09T00:10:05.797Z,0.00
2018-04-09T00:11:05.725Z,0.00
2018-04-09T00:12:05.665Z,0.00
2018-04-09T00:13:05.612Z,0.00
2018-04-09T00:14:05.537Z,0.00
2018-04-09T00:15:05.478Z,0.00
2018-04-09T00:16:05.412Z,0.00
2018-04-09T00:17:05.340Z,0.00
2018-04-09T00:18:05.279Z,0.00
2018-04-09T00:19:05.215Z,0.00
2018-04-09T00:20:05.150Z,0.00
2018-04-09T00:21:05.089Z,0.00
2018-04-09T00:22:05.025Z,0.00
2018-04-09T00:23:04.961Z,0.00
2018-04-09T00:24:04.896Z,0.00
2018-04-09T00:25:04.837Z,0.00
2018-04-09T00:26:04.771Z,0.00
2018-04-09T00:27:04.711Z,0.00
2018-04-09T00:28:04.637Z,0.00
2018-04-09T00:29:04.572Z,0.00
2018-04-09T00:30:04.511Z,0.00
2018-04-09T00:31:04.442Z,0.00
2018-04-09T00:32:04.384Z,0.00
2018-04-09T00:33:04.317Z,0.00
2018-04-09T00:34:04.251Z,0.00
2018-04-09T00:35:04.190Z,0.00
2018-04-09T00:36:04.128Z,0.00
2018-04-09T00:37:04.062Z,0.00
2018-04-09T00:38:03.991Z,0.00
2018-04-09T00:39:03.945Z,0.00
2018-04-09T00:40:03.890Z,0.00
2018-04-09T00:41:03.802Z,0.00
2018-04-09T00:42:03.742Z,0.00
2018-04-09T00:43:03.673Z,0.00
2018-04-09T00:44:03.614Z,0.00
2018-04-09T00:45:03.542Z,0.00
2018-04-09T00:46:03.484Z,0.00
2018-04-09T00:47:03.414Z,0.00
2018-04-09T00:48:03.351Z,0.00
2018-04-09T00:49:03.286Z,0.00
2018-04-09T00:50:03.220Z,0.00
2018-04-09T00:51:03.159Z,0.00
2018-04-09T00:52:03.092Z,0.00
2018-04-09T00:53:03.029Z,0.00
2018-04-09T00:54:02.965Z,0.00
2018-04-09T00:55:02.906Z,0.00
2018-04-09T00:56:02.836Z,0.00
2018-04-09T00:57:02.768Z,0.00
2018-04-09T00:58:02.707Z,0.00
2018-04-09T00:59:02.644Z,0.00
2018-04-09T01:00:02.578Z,0.00
2018-04-09T01:01:02.516Z,0.00
2018-04-09T01:02:02.448Z,0.00
2018-04-09T01:03:02.401Z,0.00
2018-04-09T01:04:02.317Z,0.00
2018-04-09T01:05:02.267Z,0.00
2018-04-09T01:06:02.199Z,0.00
2018-04-09T01:07:02.152Z,0.00
2018-04-09T01:08:02.064Z,0.00
2018-04-09T01:09:02.024Z,0.00
2018-04-09T01:10:01.938Z,0.00
2018-04-09T01:11:01.875Z,0.00
2018-04-09T01:12:01.880Z,0.00
2018-04-09T01:13:01.739Z,0.00
2018-04-09T01:14:01.693Z,0.00
2018-04-09T01:15:01.629Z,0.00
2018-04-09T01:16:01.547Z,0.00
2018-04-09T01:17:01.480Z,0.00
2018-04-09T01:18:01.417Z,0.00
2018-04-09T01:19:01.352Z,0.00
2018-04-09T01:20:01.286Z,0.00
2018-04-09T01:21:01.219Z,0.00
2018-04-09T01:22:01.156Z,0.00
2018-04-09T01:23:01.090Z,0.00
2018-04-09T01:24:01.024Z,0.00
2018-04-09T01:25:00.969Z,0.00
2018-04-09T01:26:00.901Z,0.00
2018-04-09T01:27:00.840Z,0.00
2018-04-09T01:28:00.769Z,0.00
2018-04-09T01:29:00.703Z,0.00
2018-04-09T01:30:00.638Z,0.00
2018-04-09T01:31:00.578Z,0.00
2018-04-09T01:32:00.509Z,0.00
2018-04-09T01:33:00.447Z,0.00
2018-04-09T01:34:00.377Z,0.00
2018-04-09T01:35:00.313Z,0.00
2018-04-09T01:36:00.245Z,0.00
2018-04-09T01:37:00.187Z,0.00
2018-04-09T01:38:00.121Z,0.00
2018-04-09T01:39:00.830Z,0.00
2018-04-09T01:39:59.991Z,0.00
2018-04-09T01:40:59.934Z,0.00
2018-04-09T01:41:59.868Z,0.00
2018-04-09T01:42:59.795Z,0.00
2018-04-09T01:43:59.731Z,0.00
2018-04-09T01:44:59.673Z,0.00
2018-04-09T01:45:59.609Z,0.00
2018-04-09T01:46:59.540Z,0.00
2018-04-09T01:47:59.469Z,0.00
2018-04-09T01:48:59.410Z,0.00
2018-04-09T01:49:59.345Z,0.00
2018-04-09T01:50:59.281Z,0.00
2018-04-09T01:51:59.223Z,0.00
2018-04-09T01:52:59.168Z,0.00
2018-04-09T01:53:59.082Z,0.00
2018-04-09T01:54:59.042Z,0.00
2018-04-09T01:55:58.984Z,0.00
2018-04-09T01:56:58.888Z,0.00
2018-04-09T01:57:58.829Z,0.00
2018-04-09T01:58:58.765Z,0.00
2018-04-09T01:59:58.698Z,0.00
2018-04-09T02:00:58.626Z,0.00
2018-04-09T02:01:58.567Z,0.00
2018-04-09T02:02:58.498Z,0.00
2018-04-09T02:03:58.436Z,0.00
2018-04-09T02:04:58.371Z,0.00
2018-04-09T02:05:58.312Z,0.00
2018-04-09T02:06:58.236Z,0.00
2018-04-09T02:07:58.176Z,0.00
2018-04-09T02:08:58.114Z,0.00
2018-04-09T02:09:58.046Z,0.00
2018-04-09T02:10:57.982Z,0.00
2018-04-09T02:11:57.919Z,0.00
2018-04-09T02:12:57.863Z,0.00
2018-04-09T02:13:57.790Z,0.00
2018-04-09T02:14:57.728Z,0.00
2018-04-09T02:15:57.652Z,0.00
2018-04-09T02:16:57.598Z,0.00
2018-04-09T02:17:57.526Z,0.00
2018-04-09T02:18:57.459Z,0.00
2018-04-09T02:19:57.414Z,0.00
2018-04-09T02:20:57.331Z,0.00
2018-04-09T02:21:57.266Z,0.00
2018-04-09T02:22:57.202Z,0.00
2018-04-09T02:23:57.138Z,0.00
2018-04-09T02:24:57.092Z,0.00
2018-04-09T02:25:57.028Z,0.00
2018-04-09T02:26:56.955Z,0.00
2018-04-09T02:27:56.888Z,0.00
2018-04-09T02:28:56.824Z,0.00
2018-04-09T02:29:56.763Z,0.00
2018-04-09T02:30:56.686Z,0.00
2018-04-09T02:31:56.615Z,0.00
2018-04-09T02:32:56.550Z,0.00
2018-04-09T02:33:56.496Z,0.00
2018-04-09T02:34:56.423Z,0.00
2018-04-09T02:35:56.353Z,0.00
2018-04-09T02:36:56.295Z,0.00
2018-04-09T02:37:56.222Z,0.00
2018-04-09T02:38:56.160Z,0.00
2018-04-09T02:39:56.125Z,0.00
2018-04-09T02:40:56.032Z,0.00
2018-04-09T02:41:55.970Z,0.00
2018-04-09T02:42:55.902Z,0.00
2018-04-09T02:43:55.840Z,0.00
2018-04-09T02:44:55.785Z,0.00
2018-04-09T02:45:55.716Z,0.00
2018-04-09T02:46:55.651Z,0.00
2018-04-09T02:47:55.568Z,0.00
2018-04-09T02:48:55.515Z,0.00
2018-04-09T02:49:55.445Z,0.00
2018-04-09T02:50:55.381Z,0.00
2018-04-09T02:51:55.314Z,0.00
2018-04-09T02:52:55.248Z,0.00
2018-04-09T02:53:55.191Z,0.00
2018-04-09T02:54:55.124Z,0.00
2018-04-09T02:55:55.053Z,0.00
2018-04-09T02:56:55.009Z,0.00
2018-04-09T02:57:54.931Z,0.00
2018-04-09T02:58:54.855Z,0.00
2018-04-09T02:59:54.789Z,0.00
2018-04-09T03:00:54.726Z,0.00
2018-04-09T03:01:54.664Z,0.00
2018-04-09T03:02:54.609Z,0.00
2018-04-09T03:03:54.529Z,0.00
2018-04-09T03:04:54.466Z,0.00
2018-04-09T03:05:54.398Z,0.00
2018-04-09T03:06:54.337Z,0.00
2018-04-09T03:07:54.271Z,0.00
2018-04-09T03:08:54.233Z,0.00
2018-04-09T03:09:54.147Z,0.00
2018-04-09T03:10:54.089Z,0.00
2018-04-09T03:11:54.007Z,0.00
2018-04-09T03:12:53.943Z,0.00
2018-04-09T03:13:53.877Z,0.00
2018-04-09T03:14:53.820Z,0.00
2018-04-09T03:15:53.827Z,0.00
2018-04-09T03:16:53.685Z,0.00
2018-04-09T03:17:53.614Z,0.00
2018-04-09T03:18:53.551Z,0.00
2018-04-09T03:19:53.483Z,0.00
2018-04-09T03:20:53.432Z,0.00
2018-04-09T03:21:53.355Z,0.00
2018-04-09T03:22:53.291Z,0.00
2018-04-09T03:23:53.221Z,0.00
2018-04-09T03:24:53.162Z,0.00
2018-04-09T03:25:53.096Z,0.00
2018-04-09T03:26:53.034Z,0.00
2018-04-09T03:27:52.987Z,0.00
2018-04-09T03:28:52.897Z,0.00
2018-04-09T03:29:52.834Z,0.00
2018-04-09T03:30:52.765Z,0.00
2018-04-09T03:32:00.408Z,0.00
2018-04-09T03:33:47.007Z,0.00
2018-04-09T03:34:46.922Z,0.00
2018-04-09T03:36:40.241Z,0.00
2018-04-09T03:37:40.111Z,0.00
2018-04-09T03:39:34.465Z,0.00
2018-04-09T03:40:34.338Z,0.00
2018-04-09T03:42:27.623Z,0.00
2018-04-09T03:43:27.541Z,0.00
2018-04-09T03:45:21.822Z,0.00
2018-04-09T03:46:24.387Z,0.00
2018-04-09T03:48:16.058Z,0.00
2018-04-09T03:49:15.916Z,0.00
2018-04-09T03:51:10.237Z,0.00
2018-04-09T03:52:10.123Z,0.00
2018-04-09T03:54:03.479Z,0.00
2018-04-09T03:55:03.334Z,0.00
2018-04-09T03:56:03.262Z,0.00
2018-04-09T03:57:03.216Z,0.00
2018-04-09T03:58:03.129Z,0.00
2018-04-09T03:59:03.064Z,0.00
2018-04-09T04:00:02.999Z,0.00
2018-04-09T04:01:02.934Z,0.00
2018-04-09T04:02:02.892Z,0.00
2018-04-09T04:03:02.802Z,0.00
2018-04-09T04:04:02.749Z,0.00
2018-04-09T04:05:02.707Z,0.00
2018-04-09T04:06:02.611Z,0.00
2018-04-09T04:07:02.538Z,0.00
2018-04-09T04:08:02.469Z,0.00
2018-04-09T04:09:02.445Z,0.00
2018-04-09T04:10:02.337Z,0.00
2018-04-09T04:11:02.290Z,0.00
2018-04-09T04:12:02.210Z,0.00
2018-04-09T04:13:02.144Z,0.00
2018-04-09T04:14:02.090Z,0.00
2018-04-09T04:15:02.014Z,5.63
2018-04-09T04:16:01.952Z,5.63
2018-04-09T04:17:01.879Z,5.63
2018-04-09T04:18:01.812Z,5.63
2018-04-09T04:19:01.750Z,5.63
2018-04-09T04:20:01.685Z,5.63
2018-04-09T04:21:01.620Z,11.25
2018-04-09T04:22:01.561Z,11.25
2018-04-09T04:23:01.534Z,11.25
2018-04-09T04:24:01.428Z,11.25
2018-04-09T04:25:01.377Z,11.25
2018-04-09T04:26:01.286Z,16.88
2018-04-09T04:27:01.223Z,16.88
2018-04-09T04:28:01.151Z,16.88
2018-04-09T04:29:01.087Z,22.50
2018-04-09T04:30:01.020Z,22.50
2018-04-09T04:31:00.956Z,22.50
2018-04-09T04:32:00.889Z,28.13
2018-04-09T04:33:00.830Z,28.13
2018-04-09T04:34:00.758Z,28.13
2018-04-09T04:35:00.691Z,33.75
2018-04-09T04:36:00.634Z,33.75
2018-04-09T04:37:00.554Z,33.75
2018-04-09T04:38:00.492Z,39.38
2018-04-09T04:39:00.430Z,39.38
2018-04-09T04:40:00.366Z,39.38
2018-04-09T04:41:00.298Z,45.00
2018-04-09T04:42:00.228Z,45.00
2018-04-09T04:43:00.159Z,50.63
2018-04-09T04:44:00.102Z,50.63
2018-04-09T04:45:00.025Z,56.25
2018-04-09T04:45:59.963Z,56.25
2018-04-09T04:46:59.897Z,56.25
2018-04-09T04:47:59.834Z,61.88
2018-04-09T04:48:59.760Z,61.88
2018-04-09T04:49:59.696Z,67.50
2018-04-09T04:50:59.629Z,67.50
2018-04-09T04:51:59.566Z,73.13
2018-04-09T04:52:59.507Z,73.13
2018-04-09T04:53:59.431Z,78.75
2018-04-09T04:54:59.366Z,78.75
2018-04-09T04:55:59.332Z,84.38
2018-04-09T04:56:59.248Z,84.38
2018-04-09T04:57:59.166Z,84.38
2018-04-09T04:58:59.103Z,90.00
2018-04-09T04:59:59.061Z,90.00
2018-04-09T05:00:58.975Z,95.63
2018-04-09T05:01:58.905Z,95.63
2018-04-09T05:02:58.838Z,101.25
2018-04-09T05:03:58.772Z,101.25
2018-04-09T05:04:58.719Z,106.88
2018-04-09T05:05:58.641Z,106.88
2018-04-09T05:06:58.587Z,106.88
2018-04-09T05:07:58.516Z,112.50
2018-04-09T05:08:58.472Z,112.50
2018-04-09T05:09:58.377Z,118.13
2018-04-09T05:10:58.358Z,118.13
2018-04-09T05:11:58.293Z,123.75
2018-04-09T05:12:58.177Z,123.75
2018-04-09T05:13:58.113Z,129.38
2018-04-09T05:14:58.047Z,129.38
2018-04-09T05:15:58.527Z,129.38
2018-04-09T05:16:57.928Z,135.00
2018-04-09T05:17:57.913Z,135.00
2018-04-09T05:18:57.896Z,140.63
2018-04-09T05:19:57.800Z,140.63
2018-04-09T05:20:57.672Z,146.25
2018-04-09T05:21:57.590Z,146.25
2018-04-09T05:22:57.522Z,151.88
2018-04-09T05:23:57.454Z,151.88
2018-04-09T05:24:57.410Z,151.88
2018-04-09T05:25:57.332Z,151.88
2018-04-09T05:26:57.256Z,157.50
2018-04-09T05:27:57.209Z,157.50
2018-04-09T05:28:57.126Z,163.13
2018-04-09T05:29:57.063Z,163.13
2018-04-09T05:30:56.996Z,168.75
2018-04-09T05:31:56.943Z,168.75
2018-04-09T05:32:56.868Z,174.38
2018-04-09T05:33:56.810Z,174.38
2018-04-09T05:34:56.734Z,180.00
2018-04-09T05:35:56.689Z,180.00
2018-04-09T05:36:56.604Z,185.63
2018-04-09T05:37:56.532Z,185.63
2018-04-09T05:38:56.462Z,191.25
2018-04-09T05:40:04.093Z,191.25
2018-04-09T05:41:58.588Z,196.88
2018-04-09T05:42:49.639Z,202.50
2018-04-09T05:44:44.283Z,208.13
2018-04-09T05:45:43.842Z,208.13
2018-04-09T05:47:39.700Z,213.75
2018-04-09T05:50:33.297Z,219.38
2018-04-09T05:51:41.317Z,225.00
2018-04-09T05:53:35.697Z,225.00
2018-04-09T05:54:27.956Z,225.00
2018-04-09T05:56:27.886Z,230.63
2018-04-09T05:57:30.621Z,236.25
2018-04-09T05:59:14.063Z,236.25
2018-04-09T06:00:13.878Z,241.88
2018-04-09T06:02:08.153Z,241.88
2018-04-09T06:03:15.928Z,247.50
2018-04-09T06:05:01.477Z,253.13
2018-04-09T06:06:01.255Z,253.13
2018-04-09T06:07:56.501Z,258.75
2018-04-09T06:08:57.394Z,258.75
2018-04-09T06:10:53.000Z,264.38
2018-04-09T06:11:52.240Z,270.00
2018-04-09T06:13:46.254Z,275.63
2018-04-09T06:14:46.184Z,275.63
2018-04-09T06:16:40.465Z,281.25
2018-04-09T06:17:41.131Z,286.88
2018-04-09T06:19:33.809Z,275.63
2018-04-09T06:20:33.608Z,275.63
2018-04-09T06:22:26.921Z,281.25
2018-04-09T06:23:26.841Z,281.25
2018-04-09T06:24:26.815Z,286.88
2018-04-09T06:25:26.919Z,286.88
2018-04-09T06:26:26.545Z,286.88
2018-04-09T06:27:26.479Z,320.63
2018-04-09T06:28:26.410Z,382.50
2018-04-09T06:29:26.345Z,360.00
2018-04-09T06:30:26.284Z,309.38
2018-04-09T06:31:26.220Z,298.13
2018-04-09T06:32:26.153Z,298.13
2018-04-09T06:33:26.099Z,298.13
2018-04-09T06:34:26.048Z,298.13
2018-04-09T06:35:25.966Z,303.75
2018-04-09T06:36:25.899Z,303.75
2018-04-09T06:37:25.830Z,303.75
2018-04-09T06:38:25.770Z,303.75
2018-04-09T06:39:25.710Z,309.38
2018-04-09T06:40:25.644Z,303.75
2018-04-09T06:41:25.579Z,309.38
2018-04-09T06:42:25.511Z,309.38
2018-04-09T06:43:25.447Z,309.38
2018-04-09T06:44:25.387Z,309.38
2018-04-09T06:45:25.345Z,309.38
2018-04-09T06:46:25.254Z,315.00
2018-04-09T06:47:25.190Z,315.00
2018-04-09T06:48:25.125Z,315.00
2018-04-09T06:49:25.087Z,315.00
2018-04-09T06:50:25.013Z,320.63
2018-04-09T06:51:24.936Z,320.63
2018-04-09T06:52:24.870Z,320.63
2018-04-09T06:53:24.802Z,320.63
2018-04-09T06:54:24.749Z,320.63
2018-04-09T06:55:24.676Z,326.25
2018-04-09T06:56:24.613Z,326.25
2018-04-09T06:57:24.568Z,337.50
2018-04-09T06:58:24.485Z,343.13
2018-04-09T06:59:24.423Z,348.75
2018-04-09T07:00:24.356Z,348.75
2018-04-09T07:01:24.295Z,348.75
2018-04-09T07:02:24.260Z,337.50
2018-04-09T07:03:24.175Z,337.50
2018-04-09T07:04:24.103Z,337.50
2018-04-09T07:05:24.037Z,343.13
2018-04-09T07:06:23.984Z,354.38
2018-04-09T07:07:23.912Z,354.38
2018-04-09T07:08:23.847Z,354.38
2018-04-09T07:09:23.788Z,360.00
2018-04-09T07:10:23.720Z,360.00
2018-04-09T07:11:23.656Z,360.00
2018-04-09T07:12:23.589Z,360.00
2018-04-09T07:13:23.525Z,360.00
2018-04-09T07:14:23.470Z,365.63
2018-04-09T07:15:23.403Z,365.63
2018-04-09T07:16:23.360Z,365.63
2018-04-09T07:17:23.283Z,365.63
2018-04-09T07:18:23.213Z,365.63
2018-04-09T07:19:23.147Z,365.63
2018-04-09T07:20:23.084Z,371.25
2018-04-09T07:21:23.025Z,371.25
2018-04-09T07:22:22.958Z,371.25
2018-04-09T07:23:23.562Z,371.25
2018-04-09T07:24:22.835Z,371.25
2018-04-09T07:25:22.767Z,371.25
2018-04-09T07:26:22.705Z,376.88
2018-04-09T07:27:22.646Z,376.88
2018-04-09T07:28:22.580Z,376.88
2018-04-09T07:29:22.513Z,376.88
2018-04-09T07:30:22.451Z,382.50
2018-04-09T07:31:22.386Z,382.50
2018-04-09T07:32:22.326Z,382.50
2018-04-09T07:33:22.260Z,382.50
2018-04-09T07:34:22.225Z,388.13
2018-04-09T07:35:22.130Z,388.13
2018-04-09T07:36:22.068Z,388.13
2018-04-09T07:37:22.009Z,388.13
2018-04-09T07:38:21.957Z,388.13
2018-04-09T07:39:21.917Z,388.13
2018-04-09T07:40:21.829Z,388.13
2018-04-09T07:41:21.868Z,388.13
2018-04-09T07:42:21.818Z,393.75
2018-04-09T07:43:21.631Z,393.75
2018-04-09T07:44:21.607Z,393.75
2018-04-09T07:45:21.511Z,393.75
2018-04-09T07:46:21.446Z,393.75
2018-04-09T07:47:21.389Z,393.75
2018-04-09T07:48:21.348Z,393.75
2018-04-09T07:49:21.323Z,393.75
2018-04-09T07:50:21.195Z,399.38
2018-04-09T07:51:21.144Z,393.75
2018-04-09T07:52:21.086Z,393.75
2018-04-09T07:53:21.007Z,393.75
2018-04-09T07:54:20.953Z,393.75
2018-04-09T07:55:20.882Z,393.75
2018-04-09T07:56:20.839Z,393.75
2018-04-09T07:57:20.761Z,393.75
2018-04-09T07:58:20.695Z,393.75
2018-04-09T07:59:20.633Z,393.75
2018-04-09T08:00:20.570Z,393.75
2018-04-09T08:01:20.513Z,393.75
2018-04-09T08:02:20.446Z,393.75
2018-04-09T08:03:20.384Z,393.75
2018-04-09T08:04:20.328Z,399.38
2018-04-09T08:05:20.261Z,405.00
2018-04-09T08:06:20.212Z,399.38
2018-04-09T08:07:20.132Z,399.38
2018-04-09T08:08:20.077Z,399.38
2018-04-09T08:09:20.009Z,399.38
2018-04-09T08:10:19.970Z,399.38
2018-04-09T08:11:19.888Z,399.38
2018-04-09T08:12:19.834Z,399.38
2018-04-09T08:13:19.795Z,399.38
2018-04-09T08:14:19.702Z,405.00
2018-04-09T08:15:19.642Z,405.00
2018-04-09T08:16:19.607Z,405.00
2018-04-09T08:17:19.513Z,405.00
2018-04-09T08:18:19.455Z,405.00
2018-04-09T08:19:19.438Z,405.00
2018-04-09T08:20:19.333Z,405.00
2018-04-09T08:21:19.286Z,405.00
2018-04-09T08:22:19.220Z,405.00
2018-04-09T08:23:19.161Z,405.00
2018-04-09T08:24:19.085Z,405.00
2018-04-09T08:25:19.028Z,410.63
2018-04-09T08:26:18.964Z,410.63
2018-04-09T08:27:18.905Z,410.63
2018-04-09T08:28:18.848Z,410.63
2018-04-09T08:29:19.424Z,410.63
2018-04-09T08:30:18.716Z,410.63
2018-04-09T08:31:18.654Z,410.63
2018-04-09T08:32:18.603Z,410.63
2018-04-09T08:33:18.533Z,410.63
2018-04-09T08:34:18.474Z,410.63
2018-04-09T08:35:18.412Z,416.25
2018-04-09T08:36:18.344Z,410.63
2018-04-09T08:37:18.287Z,416.25
2018-04-09T08:38:18.228Z,416.25
2018-04-09T08:39:18.195Z,427.50
2018-04-09T08:40:18.099Z,416.25
2018-04-09T08:41:18.039Z,421.88
2018-04-09T08:42:17.985Z,416.25
2018-04-09T08:43:17.918Z,416.25
2018-04-09T08:44:17.860Z,416.25
2018-04-09T08:45:17.797Z,416.25
2018-04-09T08:46:17.737Z,416.25
2018-04-09T08:47:17.679Z,416.25
2018-04-09T08:48:17.609Z,416.25
2018-04-09T08:49:17.547Z,421.88
2018-04-09T08:50:17.494Z,421.88
2018-04-09T08:51:17.427Z,421.88
2018-04-09T08:52:19.937Z,421.88
2018-04-09T08:53:17.356Z,427.50
2018-04-09T08:54:17.242Z,421.88
2018-04-09T08:55:17.193Z,421.88
2018-04-09T08:56:17.121Z,421.88
2018-04-09T08:57:17.063Z,421.88
2018-04-09T08:58:17.004Z,427.50
2018-04-09T08:59:16.969Z,427.50
2018-04-09T09:00:16.885Z,427.50
2018-04-09T09:01:16.815Z,427.50
2018-04-09T09:02:16.762Z,427.50
2018-04-09T09:03:16.703Z,427.50
2018-04-09T09:04:16.639Z,427.50
2018-04-09T09:05:16.574Z,427.50
2018-04-09T09:06:16.523Z,427.50
2018-04-09T09:07:16.450Z,427.50
2018-04-09T09:08:16.392Z,427.50
2018-04-09T09:09:16.351Z,427.50
2018-04-09T09:10:16.269Z,433.13
2018-04-09T09:11:16.210Z,433.13
2018-04-09T09:12:16.148Z,433.13
2018-04-09T09:13:16.087Z,433.13
2018-04-09T09:14:16.025Z,433.13
2018-04-09T09:15:16.958Z,438.75
2018-04-09T09:16:15.929Z,438.75
2018-04-09T09:17:15.842Z,438.75
2018-04-09T09:18:15.785Z,438.75
2018-04-09T09:19:15.722Z,438.75
2018-04-09T09:20:15.679Z,438.75
2018-04-09T09:21:15.644Z,438.75
2018-04-09T09:22:15.538Z,438.75
2018-04-09T09:23:15.482Z,438.75
2018-04-09T09:24:15.424Z,438.75
2018-04-09T09:25:15.357Z,444.38
2018-04-09T09:26:15.308Z,444.38
2018-04-09T09:27:15.236Z,444.38
2018-04-09T09:28:15.177Z,450.00
2018-04-09T09:29:15.124Z,450.00
2018-04-09T09:30:15.062Z,450.00
2018-04-09T09:31:14.995Z,450.00
2018-04-09T09:32:14.933Z,455.63
2018-04-09T09:33:14.873Z,461.25
2018-04-09T09:34:14.810Z,455.63
2018-04-09T09:35:14.756Z,455.63
2018-04-09T09:36:14.698Z,461.25
2018-04-09T09:37:14.638Z,461.25
2018-04-09T09:38:14.582Z,461.25
2018-04-09T09:39:14.512Z,461.25
2018-04-09T09:40:14.451Z,461.25
2018-04-09T09:41:14.394Z,466.88
2018-04-09T09:42:14.334Z,461.25
2018-04-09T09:43:14.276Z,466.88
2018-04-09T09:44:14.210Z,466.88
2018-04-09T09:45:14.164Z,466.88
2018-04-09T09:46:14.094Z,466.88
2018-04-09T09:47:14.040Z,466.88
2018-04-09T09:48:13.978Z,472.50
2018-04-09T09:49:13.953Z,472.50
2018-04-09T09:50:13.854Z,472.50
2018-04-09T09:51:13.788Z,472.50
2018-04-09T09:52:13.736Z,472.50
2018-04-09T09:53:13.690Z,478.13
2018-04-09T09:54:13.606Z,478.13
2018-04-09T09:55:13.570Z,478.13
2018-04-09T09:56:13.488Z,478.13
2018-04-09T09:57:13.428Z,478.13
2018-04-09T09:58:13.371Z,483.75
2018-04-09T09:59:13.315Z,483.75
2018-04-09T10:00:13.254Z,483.75
2018-04-09T10:01:13.193Z,483.75
2018-04-09T10:02:13.129Z,483.75
2018-04-09T10:03:13.092Z,489.38
2018-04-09T10:04:13.010Z,489.38
2018-04-09T10:05:13.013Z,489.38
2018-04-09T10:06:12.886Z,495.00
2018-04-09T10:07:12.831Z,500.63
2018-04-09T10:08:12.771Z,495.00
2018-04-09T10:09:12.718Z,495.00
2018-04-09T10:10:12.653Z,500.63
2018-04-09T10:11:12.585Z,500.63
2018-04-09T10:12:12.539Z,500.63
2018-04-09T10:13:12.469Z,500.63
2018-04-09T10:14:12.412Z,506.25
2018-04-09T10:15:12.355Z,506.25
2018-04-09T10:16:12.286Z,506.25
2018-04-09T10:17:12.231Z,506.25
2018-04-09T10:18:12.169Z,506.25
2018-04-09T10:19:12.116Z,511.88
2018-04-09T10:20:12.054Z,511.88
2018-04-09T10:21:12.003Z,511.88
2018-04-09T10:22:11.937Z,517.50
2018-04-09T10:23:11.871Z,517.50
2018-04-09T10:24:11.816Z,523.13
2018-04-09T10:25:11.759Z,523.13
2018-04-09T10:26:11.690Z,523.13
2018-04-09T10:27:11.638Z,523.13
2018-04-09T10:28:11.576Z,523.13
2018-04-09T10:29:11.523Z,528.75
2018-04-09T10:30:11.510Z,534.38
2018-04-09T10:31:11.417Z,534.38
2018-04-09T10:32:11.350Z,528.75
2018-04-09T10:33:11.295Z,534.38
2018-04-09T10:34:11.221Z,534.38
2018-04-09T10:35:11.158Z,540.00
2018-04-09T10:36:11.093Z,540.00
2018-04-09T10:37:11.039Z,534.38
2018-04-09T10:38:10.978Z,540.00
2018-04-09T10:39:10.934Z,540.00
2018-04-09T10:40:10.862Z,540.00
2018-04-09T10:41:10.803Z,540.00
2018-04-09T10:42:10.743Z,545.63
2018-04-09T10:43:10.687Z,545.63
2018-04-09T10:44:10.622Z,551.25
2018-04-09T10:45:10.566Z,551.25
2018-04-09T10:46:10.507Z,545.63
2018-04-09T10:47:10.445Z,551.25
2018-04-09T10:48:10.386Z,556.88
2018-04-09T10:49:10.383Z,545.63
2018-04-09T10:50:10.268Z,551.25
2018-04-09T10:51:10.225Z,556.88
2018-04-09T10:52:10.152Z,562.50
2018-04-09T10:53:10.092Z,573.75
2018-04-09T10:54:10.036Z,579.38
2018-04-09T10:55:09.979Z,590.63
2018-04-09T10:56:09.932Z,596.25
2018-04-09T10:57:09.868Z,601.88
2018-04-09T10:58:09.803Z,607.50
2018-04-09T10:59:09.742Z,607.50
2018-04-09T11:00:09.680Z,613.13
2018-04-09T11:01:09.621Z,635.63
2018-04-09T11:02:09.563Z,635.63
2018-04-09T11:03:09.537Z,635.63
2018-04-09T11:04:09.535Z,646.88
2018-04-09T11:05:09.387Z,658.13
2018-04-09T11:06:09.971Z,658.13
2018-04-09T11:07:09.267Z,663.75
2018-04-09T11:08:09.224Z,663.75
2018-04-09T11:09:09.164Z,669.38
2018-04-09T11:10:09.111Z,680.63
2018-04-09T11:11:09.040Z,686.25
2018-04-09T11:12:08.989Z,686.25
2018-04-09T11:13:08.930Z,697.50
2018-04-09T11:14:08.871Z,703.13
2018-04-09T11:15:08.813Z,708.75
2018-04-09T11:16:08.770Z,714.38
2018-04-09T11:17:08.718Z,720.00
2018-04-09T11:18:08.649Z,731.25
2018-04-09T11:19:08.589Z,736.88
2018-04-09T11:20:08.533Z,742.50
2018-04-09T11:21:08.487Z,753.75
2018-04-09T11:22:08.427Z,759.38
2018-04-09T11:23:08.375Z,770.63
2018-04-09T11:24:08.340Z,793.13
2018-04-09T11:25:08.262Z,1175.63
2018-04-09T11:26:08.209Z,2655.00
2018-04-09T11:27:08.154Z,3363.75
2018-04-09T11:28:08.099Z,3448.13
2018-04-09T11:29:08.047Z,3476.25
2018-04-09T11:30:07.996Z,3487.50
2018-04-09T11:31:07.954Z,3459.38
2018-04-09T11:32:07.894Z,3425.63
2018-04-09T11:33:07.835Z,3346.88
2018-04-09T11:34:07.827Z,3285.00
2018-04-09T11:35:07.733Z,3206.25
2018-04-09T11:36:07.685Z,3099.38
2018-04-09T11:37:07.648Z,3060.00
2018-04-09T11:38:07.586Z,3060.00
2018-04-09T11:39:07.541Z,3110.63
2018-04-09T11:40:07.483Z,3200.63
2018-04-09T11:41:07.440Z,3296.25
2018-04-09T11:42:07.384Z,3352.50
2018-04-09T11:43:07.338Z,3386.25
2018-04-09T11:44:07.286Z,3414.38
2018-04-09T11:45:07.233Z,3420.00
2018-04-09T11:46:07.186Z,3414.38
2018-04-09T11:47:07.135Z,3397.50
2018-04-09T11:48:07.092Z,3408.75
2018-04-09T11:49:07.042Z,3380.63
2018-04-09T11:50:06.992Z,3318.75
2018-04-09T11:51:06.944Z,3223.13
2018-04-09T11:52:06.891Z,3116.25
2018-04-09T11:53:06.846Z,3026.25
2018-04-09T11:54:06.823Z,2947.50
2018-04-09T11:55:06.751Z,2925.00
2018-04-09T11:56:06.716Z,2947.50
2018-04-09T11:57:06.658Z,3009.38
2018-04-09T11:58:06.612Z,3110.63
2018-04-09T11:59:06.571Z,3183.75
2018-04-09T12:00:06.517Z,3240.00
2018-04-09T12:01:06.465Z,3307.50
2018-04-09T12:02:06.419Z,3352.50
2018-04-09T12:03:06.378Z,3420.00
2018-04-09T12:04:06.332Z,3498.75
2018-04-09T12:05:06.300Z,3555.00
2018-04-09T12:06:06.241Z,3543.75
2018-04-09T12:07:06.198Z,3442.50
2018-04-09T12:08:06.146Z,3318.75
2018-04-09T12:09:06.106Z,3228.75
2018-04-09T12:10:06.057Z,3200.63
2018-04-09T12:11:06.022Z,3206.25
2018-04-09T12:12:05.967Z,3245.63
2018-04-09T12:13:05.919Z,3330.00
2018-04-09T12:14:05.877Z,3369.38
2018-04-09T12:15:05.830Z,3420.00
2018-04-09T12:16:05.791Z,3459.38
2018-04-09T12:17:05.747Z,3515.63
2018-04-09T12:18:05.699Z,3566.25
2018-04-09T12:19:05.660Z,3600.00
2018-04-09T12:20:05.627Z,3628.13
2018-04-09T12:21:05.583Z,3628.13
2018-04-09T12:22:05.525Z,3600.00
2018-04-09T12:23:05.484Z,3549.38
2018-04-09T12:24:05.434Z,3481.88
2018-04-09T12:25:05.393Z,3391.88
2018-04-09T12:26:05.351Z,3341.25
2018-04-09T12:27:05.327Z,3296.25
2018-04-09T12:28:05.273Z,3335.63
2018-04-09T12:29:05.223Z,3425.63
2018-04-09T12:30:05.192Z,3504.38
2018-04-09T12:31:05.134Z,3560.63
2018-04-09T12:32:05.092Z,3611.25
2018-04-09T12:33:05.044Z,3622.50
2018-04-09T12:34:05.002Z,3667.50
2018-04-09T12:35:04.961Z,3684.38
2018-04-09T12:36:04.916Z,3645.00
2018-04-09T12:37:04.875Z,3645.00
2018-04-09T12:38:04.833Z,3639.38
2018-04-09T12:39:04.794Z,3633.75
2018-04-09T12:40:04.745Z,3600.00
2018-04-09T12:41:04.733Z,3571.88
2018-04-09T12:42:04.660Z,3515.63
2018-04-09T12:43:04.616Z,3453.75
2018-04-09T12:44:04.573Z,3436.88
2018-04-09T12:45:04.530Z,3465.00
2018-04-09T12:46:04.495Z,3532.50
2018-04-09T12:47:04.453Z,3628.13
2018-04-09T12:48:04.406Z,3690.00
2018-04-09T12:49:04.366Z,3763.13
2018-04-09T12:50:04.320Z,3830.63
2018-04-09T12:51:04.275Z,3768.75
2018-04-09T12:52:04.232Z,3656.25
2018-04-09T12:53:04.192Z,3796.88
2018-04-09T12:54:04.152Z,3746.25
2018-04-09T12:55:04.102Z,3830.63
2018-04-09T12:56:04.062Z,3808.13
2018-04-09T12:57:04.017Z,3763.13
2018-04-09T12:58:03.979Z,3706.88
2018-04-09T12:59:03.939Z,3616.88
2018-04-09T13:00:03.889Z,3538.13
2018-04-09T13:01:24.848Z,3493.13
2018-04-09T13:02:03.802Z,3532.50
2018-04-09T13:03:03.768Z,3639.38